Chubbuck, Idaho
Current Conditions -  °F | °C
As of 6:53 AM on Saturday 25 Oct 2014 (Local Time) from KPIH Reporting Station
Clear Clear  
Wind Chill: 32°   Ceiling: Unl
Heat Index: 37°   Visibility: 10mi
Dew Point: 31°   Wind: 7mph
Humidity: 79%   Direction: 10°N
Pressure: 30.03"   Gusts: NA
Location:  42.9377°N, 112.489°W
Report Text: KPIH 251253Z 01006KT 10SM CLR 03/M01 A3003 RMK AO2 SLP152 T00281006
Loading
Personal Weather Stations






























Interactive Weather Map
Tropical Storm Tracking
New forecast layout! Learn more

10-Day Weather Forecast

Advertisements
Track Severe Weather on mobile